createdAt,value
2018-01-21T00:00:26.120Z,6.47
2018-01-21T00:02:54.423Z,7.63
2018-01-21T00:05:22.755Z,6.43
2018-01-21T00:07:51.071Z,7.80
2018-01-21T00:10:19.502Z,7.07
2018-01-21T00:12:47.839Z,9.37
2018-01-21T00:15:16.326Z,7.33
2018-01-21T00:17:44.835Z,7.40
2018-01-21T00:20:13.151Z,6.97
2018-01-21T00:22:41.563Z,8.97
2018-01-21T00:25:09.883Z,8.13
2018-01-21T00:27:38.200Z,7.60
2018-01-21T00:30:06.590Z,11.40
2018-01-21T00:32:34.935Z,7.23
2018-01-21T00:35:03.355Z,9.10
2018-01-21T00:37:31.707Z,9.20
2018-01-21T00:40:00.022Z,7.73
2018-01-21T00:42:28.323Z,8.70
2018-01-21T00:44:56.684Z,7.90
2018-01-21T00:47:25.015Z,9.03
2018-01-21T00:49:53.322Z,9.03
2018-01-21T00:52:21.648Z,10.53
2018-01-21T00:54:49.962Z,10.07
2018-01-21T00:57:18.585Z,10.43
2018-01-21T00:59:46.961Z,10.97
2018-01-21T01:02:15.290Z,8.30
2018-01-21T01:04:43.603Z,10.63
2018-01-21T01:07:11.932Z,15.90
2018-01-21T01:09:40.260Z,12.73
2018-01-21T01:12:08.579Z,14.67
2018-01-21T01:14:36.910Z,11.33
2018-01-21T01:17:05.253Z,11.10
2018-01-21T01:19:33.580Z,10.37
2018-01-21T01:22:01.912Z,12.63
2018-01-21T01:24:30.222Z,10.87
2018-01-21T01:26:58.606Z,12.27
2018-01-21T01:29:27.138Z,10.77
2018-01-21T01:31:55.463Z,16.30
2018-01-21T01:34:23.883Z,10.90
2018-01-21T01:36:52.196Z,12.90
2018-01-21T01:39:20.556Z,12.07
2018-01-21T01:41:48.882Z,13.00
2018-01-21T01:44:17.230Z,12.47
2018-01-21T01:46:45.560Z,15.37
2018-01-21T01:49:13.903Z,15.30
2018-01-21T01:51:42.213Z,15.23
2018-01-21T01:54:10.532Z,11.67
2018-01-21T01:56:38.875Z,13.83
2018-01-21T01:59:07.191Z,14.47
2018-01-21T02:01:35.547Z,12.47
2018-01-21T02:04:04.034Z,15.30
2018-01-21T02:06:32.466Z,12.57
2018-01-21T02:09:00.835Z,14.10
2018-01-21T02:11:29.170Z,11.57
2018-01-21T02:13:57.484Z,14.67
2018-01-21T02:16:25.847Z,22.83
2018-01-21T02:18:54.178Z,16.07
2018-01-21T02:21:22.502Z,12.13
2018-01-21T02:23:51.696Z,14.10
2018-01-21T02:26:20.019Z,11.63
2018-01-21T02:28:48.468Z,15.33
2018-01-21T02:31:16.761Z,12.97
2018-01-21T02:33:45.113Z,13.87
2018-01-21T02:36:13.765Z,12.33
2018-01-21T02:38:42.084Z,15.47
2018-01-21T02:41:10.404Z,13.20
2018-01-21T02:43:38.726Z,8.97
2018-01-21T02:46:07.136Z,14.93
2018-01-21T02:48:36.230Z,10.80
2018-01-21T02:51:05.514Z,10.63
2018-01-21T02:53:34.543Z,12.50
2018-01-21T02:56:02.887Z,12.10
2018-01-21T02:58:31.201Z,11.23
2018-01-21T03:00:59.949Z,10.93
2018-01-21T03:03:28.255Z,11.20
2018-01-21T03:05:56.602Z,12.60
2018-01-21T03:08:25.174Z,14.00
2018-01-21T03:11:04.491Z,13.70
2018-01-21T03:13:32.859Z,10.40
2018-01-21T03:16:01.989Z,13.10
2018-01-21T03:18:30.305Z,12.43
2018-01-21T03:20:58.640Z,11.30
2018-01-21T03:23:26.960Z,11.13
2018-01-21T03:25:55.275Z,8.93
2018-01-21T03:28:44.015Z,10.20
2018-01-21T03:31:12.331Z,10.17
2018-01-21T03:33:40.640Z,10.10
2018-01-21T03:36:08.977Z,8.50
2018-01-21T03:38:37.274Z,12.30
2018-01-21T03:41:05.599Z,11.17
2018-01-21T03:43:33.922Z,10.87
2018-01-21T03:46:02.771Z,8.97
2018-01-21T03:48:31.095Z,10.10
2018-01-21T03:50:59.419Z,8.13
2018-01-21T03:53:27.724Z,8.43
2018-01-21T03:55:56.035Z,13.33
2018-01-21T03:58:24.355Z,7.67
2018-01-21T04:00:52.668Z,9.70
2018-01-21T04:03:20.979Z,9.60
2018-01-21T04:05:49.329Z,9.10
2018-01-21T04:08:17.636Z,10.33
2018-01-21T04:10:45.980Z,13.87
2018-01-21T04:13:14.370Z,13.03
2018-01-21T04:15:42.696Z,10.80
2018-01-21T04:18:11.019Z,9.90
2018-01-21T04:20:39.348Z,12.77
2018-01-21T04:23:08.495Z,10.57
2018-01-21T04:25:36.844Z,12.43
2018-01-21T04:28:05.199Z,11.67
2018-01-21T04:30:33.556Z,11.57
2018-01-21T04:33:01.873Z,12.47
2018-01-21T04:35:31.091Z,24.47
2018-01-21T04:37:59.423Z,13.60
2018-01-21T04:40:27.744Z,11.00
2018-01-21T04:42:56.050Z,12.03
2018-01-21T04:45:24.399Z,10.10
2018-01-21T04:47:52.675Z,9.47
2018-01-21T04:50:21.012Z,9.57
2018-01-21T04:52:49.348Z,12.60
2018-01-21T04:55:17.721Z,12.13
2018-01-21T04:57:46.038Z,9.60
2018-01-21T05:00:14.363Z,8.63
2018-01-21T05:02:42.724Z,9.13
2018-01-21T05:05:11.026Z,7.70
2018-01-21T05:07:39.370Z,11.13
2018-01-21T05:10:07.668Z,8.40
2018-01-21T05:12:36.008Z,12.17
2018-01-21T05:15:04.382Z,8.97
2018-01-21T05:17:32.714Z,11.60
2018-01-21T05:20:01.011Z,8.23
2018-01-21T05:22:29.331Z,9.43
2018-01-21T05:24:58.620Z,7.70
2018-01-21T05:27:26.945Z,11.27
2018-01-21T05:29:55.987Z,7.27
2018-01-21T05:32:24.304Z,8.30
2018-01-21T05:34:52.604Z,6.03
2018-01-21T05:37:21.564Z,7.00
2018-01-21T05:39:49.898Z,8.30
2018-01-21T05:42:18.211Z,7.53
2018-01-21T05:44:46.536Z,6.67
2018-01-21T05:47:14.844Z,7.10
2018-01-21T05:49:43.158Z,9.80
2018-01-21T05:52:11.446Z,7.70
2018-01-21T05:54:39.767Z,6.97
2018-01-21T05:57:09.019Z,6.90
2018-01-21T05:59:37.378Z,7.10
2018-01-21T06:02:05.691Z,5.63
2018-01-21T06:04:34.029Z,6.27
2018-01-21T06:07:02.479Z,7.70
2018-01-21T06:09:30.791Z,5.40
2018-01-21T06:11:59.087Z,13.30
2018-01-21T06:14:27.404Z,5.67
2018-01-21T06:16:55.707Z,9.10
2018-01-21T06:19:24.016Z,6.80
2018-01-21T06:21:52.311Z,8.17
2018-01-21T06:24:20.777Z,6.47
2018-01-21T06:26:49.126Z,8.17
2018-01-21T06:29:17.529Z,7.50
2018-01-21T06:31:45.855Z,7.13
2018-01-21T06:34:14.144Z,6.67
2018-01-21T06:36:42.472Z,8.53
2018-01-21T06:39:10.847Z,8.33
2018-01-21T06:41:39.152Z,8.20
2018-01-21T06:44:07.463Z,7.77
2018-01-21T06:46:35.780Z,9.50
2018-01-21T06:49:04.109Z,9.07
2018-01-21T06:51:32.421Z,9.63
2018-01-21T06:54:00.713Z,7.57
2018-01-21T06:56:29.053Z,10.23
2018-01-21T06:58:57.323Z,10.87
2018-01-21T07:01:25.648Z,10.57
2018-01-21T07:03:53.969Z,9.23
2018-01-21T07:06:22.296Z,9.40
2018-01-21T07:08:50.624Z,10.00
2018-01-21T07:11:18.951Z,16.73
2018-01-21T07:13:49.155Z,10.30
2018-01-21T07:16:19.831Z,10.77
2018-01-21T07:18:48.874Z,11.37
2018-01-21T07:21:17.352Z,11.97
2018-01-21T07:23:46.202Z,9.33
2018-01-21T07:26:14.651Z,10.53
2018-01-21T07:28:42.970Z,10.55
2018-01-21T07:31:12.208Z,9.53
2018-01-21T07:33:40.524Z,9.93
2018-01-21T07:36:08.819Z,9.30
2018-01-21T07:38:37.130Z,9.90
2018-01-21T07:41:05.460Z,9.23
2018-01-21T07:43:33.762Z,8.47
2018-01-21T07:46:02.086Z,8.10
2018-01-21T07:48:30.507Z,7.10
2018-01-21T07:50:58.803Z,9.83
2018-01-21T07:53:27.164Z,9.00
2018-01-21T07:55:55.464Z,7.90
2018-01-21T07:58:23.771Z,8.30
2018-01-21T08:00:52.074Z,7.90
2018-01-21T08:03:20.393Z,8.07
2018-01-21T08:05:48.706Z,7.93
2018-01-21T08:08:17.053Z,10.30
2018-01-21T08:10:45.384Z,11.70
2018-01-21T08:13:13.685Z,8.73
2018-01-21T08:15:42.007Z,8.23
2018-01-21T08:18:11.185Z,8.90
2018-01-21T08:20:40.199Z,9.20
2018-01-21T08:23:08.500Z,9.97
2018-01-21T08:25:36.847Z,9.33
2018-01-21T08:28:05.149Z,8.87
2018-01-21T08:30:33.463Z,7.30
2018-01-21T08:33:01.818Z,7.77
2018-01-21T08:35:35.779Z,7.80
2018-01-21T08:38:09.568Z,9.10
2018-01-21T08:40:43.718Z,9.70
2018-01-21T08:43:12.012Z,7.47
2018-01-21T08:48:31.061Z,7.70
2018-01-21T08:50:59.383Z,8.43
2018-01-21T08:53:27.687Z,8.37
2018-01-21T08:55:56.097Z,9.90
2018-01-21T08:58:24.409Z,5.83
2018-01-21T09:00:52.729Z,7.37
2018-01-21T09:03:21.049Z,7.93
2018-01-21T09:05:49.367Z,5.67
2018-01-21T09:08:17.703Z,10.27
2018-01-21T09:10:46.104Z,10.53
2018-01-21T09:13:14.439Z,7.57
2018-01-21T09:15:42.761Z,5.53
2018-01-21T09:18:11.064Z,7.70
2018-01-21T09:20:39.416Z,6.60
2018-01-21T09:23:07.698Z,12.43
2018-01-21T09:25:36.024Z,9.83
2018-01-21T09:28:04.372Z,8.03
2018-01-21T09:30:32.668Z,15.30
2018-01-21T09:33:00.999Z,9.00
2018-01-21T09:35:29.308Z,11.27
2018-01-21T09:40:32.185Z,12.30
2018-01-21T09:43:00.514Z,11.73
2018-01-21T09:45:28.826Z,10.20
2018-01-21T09:47:57.132Z,8.33
2018-01-21T09:50:25.458Z,10.70
2018-01-21T09:52:53.759Z,9.33
2018-01-21T09:55:22.067Z,9.27
2018-01-21T09:57:50.382Z,9.67
2018-01-21T10:00:18.679Z,8.57
2018-01-21T10:02:47.003Z,11.63
2018-01-21T10:05:15.320Z,9.83
2018-01-21T10:07:43.640Z,9.93
2018-01-21T10:10:11.968Z,11.13
2018-01-21T10:12:40.280Z,11.03
2018-01-21T10:15:08.599Z,9.23
2018-01-21T10:17:36.913Z,10.80
2018-01-21T10:20:09.787Z,7.30
2018-01-21T10:22:38.687Z,10.10
2018-01-21T10:25:07.269Z,14.73
2018-01-21T10:27:35.749Z,9.87
2018-01-21T10:30:05.016Z,8.73
2018-01-21T10:32:33.355Z,9.10
2018-01-21T10:35:01.679Z,8.67
2018-01-21T10:37:30.829Z,9.40
2018-01-21T10:39:59.185Z,10.70
2018-01-21T10:42:27.489Z,6.87
2018-01-21T10:44:55.827Z,9.40
2018-01-21T10:47:24.361Z,8.77
2018-01-21T10:49:52.749Z,8.80
2018-01-21T10:52:21.341Z,11.37
2018-01-21T10:54:50.032Z,7.57
2018-01-21T10:57:18.434Z,10.90
2018-01-21T10:59:47.070Z,9.30
2018-01-21T11:02:15.640Z,7.57
2018-01-21T11:04:43.979Z,11.77
2018-01-21T11:07:12.718Z,8.40
2018-01-21T11:09:41.194Z,7.23
2018-01-21T11:12:09.504Z,8.23
2018-01-21T11:14:37.877Z,8.13
2018-01-21T11:17:06.210Z,13.77
2018-01-21T11:19:34.580Z,7.97
2018-01-21T11:22:03.000Z,9.77
2018-01-21T11:24:31.313Z,9.67
2018-01-21T11:26:59.617Z,9.87
2018-01-21T11:29:27.959Z,8.60
2018-01-21T11:31:56.248Z,12.50
2018-01-21T11:34:25.400Z,11.50
2018-01-21T11:36:54.608Z,13.77
2018-01-21T11:39:23.012Z,6.80
2018-01-21T11:41:51.331Z,7.63
2018-01-21T11:44:19.668Z,7.67
2018-01-21T11:46:48.836Z,11.80
2018-01-21T11:49:17.267Z,9.20
2018-01-21T11:51:45.596Z,9.83
2018-01-21T11:54:13.909Z,8.33
2018-01-21T11:56:42.251Z,8.60
2018-01-21T11:59:11.243Z,10.63
2018-01-21T12:01:41.457Z,11.90
2018-01-21T12:04:09.800Z,11.43
2018-01-21T12:06:38.251Z,7.47
2018-01-21T12:09:06.787Z,9.73
2018-01-21T12:11:35.269Z,7.17
2018-01-21T12:14:03.597Z,8.57
2018-01-21T12:16:32.024Z,7.13
2018-01-21T12:19:00.338Z,7.67
2018-01-21T12:21:28.662Z,8.23
2018-01-21T12:23:56.975Z,7.10
2018-01-21T12:26:25.310Z,6.80
2018-01-21T12:28:53.620Z,7.77
2018-01-21T12:31:22.175Z,9.50
2018-01-21T12:33:50.522Z,6.50
2018-01-21T12:36:18.970Z,5.90
2018-01-21T12:38:47.877Z,6.63
2018-01-21T12:41:16.605Z,5.97
2018-01-21T12:43:47.298Z,10.17
2018-01-21T12:46:15.939Z,10.90
2018-01-21T12:48:44.466Z,7.23
2018-01-21T12:51:12.951Z,9.60
2018-01-21T12:53:41.842Z,11.23
2018-01-21T12:56:10.263Z,8.13
2018-01-21T12:58:38.620Z,11.93
2018-01-21T13:01:07.072Z,6.70
2018-01-21T13:03:35.448Z,8.63
2018-01-21T13:06:03.748Z,8.70
2018-01-21T13:08:32.107Z,8.90
2018-01-21T13:11:00.456Z,11.70
2018-01-21T13:13:28.768Z,9.10
2018-01-21T13:15:57.092Z,6.20
2018-01-21T13:18:25.416Z,6.30
2018-01-21T13:20:55.558Z,5.97
2018-01-21T13:23:23.956Z,8.13
2018-01-21T13:25:52.267Z,7.03
2018-01-21T13:28:20.593Z,5.90
2018-01-21T13:30:49.405Z,5.27
2018-01-21T13:33:19.647Z,6.30
2018-01-21T13:35:48.000Z,7.60
2018-01-21T13:38:16.322Z,4.90
2018-01-21T13:40:46.320Z,15.17
2018-01-21T13:43:14.634Z,6.60
2018-01-21T13:45:42.954Z,6.77
2018-01-21T13:48:11.319Z,3.40
2018-01-21T13:50:39.859Z,9.30
2018-01-21T13:53:08.167Z,13.20
2018-01-21T13:55:36.473Z,13.50
2018-01-21T13:58:04.834Z,7.27
2018-01-21T14:00:33.859Z,5.60
2018-01-21T14:03:02.182Z,9.90
2018-01-21T14:05:30.495Z,6.40
2018-01-21T14:07:58.876Z,12.40
2018-01-21T14:10:27.194Z,6.30
2018-01-21T14:12:55.491Z,7.20
2018-01-21T14:15:23.783Z,11.23
2018-01-21T14:17:52.453Z,12.87
2018-01-21T14:20:21.048Z,7.20
2018-01-21T14:22:49.533Z,11.43
2018-01-21T14:25:17.847Z,9.50
2018-01-21T14:27:46.391Z,7.53
2018-01-21T14:30:14.947Z,7.40
2018-01-21T14:32:44.219Z,6.37
2018-01-21T14:35:12.532Z,10.33
2018-01-21T14:37:40.845Z,9.93
2018-01-21T14:40:09.899Z,7.00
2018-01-21T14:42:38.231Z,7.10
2018-01-21T14:45:07.025Z,6.80
2018-01-21T14:47:35.524Z,9.73
2018-01-21T14:50:04.012Z,9.23
2018-01-21T14:52:32.492Z,11.07
2018-01-21T14:55:01.047Z,11.27
2018-01-21T14:57:29.410Z,22.87
2018-01-21T14:59:57.732Z,15.10
2018-01-21T15:02:26.067Z,21.60
2018-01-21T15:04:54.391Z,19.80
2018-01-21T15:07:22.704Z,24.90
2018-01-21T15:09:51.033Z,11.40
2018-01-21T15:12:19.397Z,17.50
2018-01-21T15:14:48.060Z,9.77
2018-01-21T15:17:16.565Z,15.90
2018-01-21T15:19:45.163Z,10.20
2018-01-21T15:22:14.294Z,14.60
2018-01-21T15:24:42.636Z,11.23
2018-01-21T15:27:10.943Z,10.87
2018-01-21T15:29:39.274Z,11.27
2018-01-21T15:32:07.594Z,12.67
2018-01-21T15:34:36.011Z,14.73
2018-01-21T15:37:04.349Z,19.93
2018-01-21T15:39:32.657Z,17.40
2018-01-21T15:42:00.988Z,14.30
2018-01-21T15:44:29.290Z,9.77
2018-01-21T15:46:57.603Z,15.90
2018-01-21T15:49:25.911Z,12.73
2018-01-21T15:51:54.241Z,10.53
2018-01-21T15:54:22.552Z,13.53
2018-01-21T15:56:50.875Z,11.00
2018-01-21T15:59:19.187Z,8.37
2018-01-21T16:01:47.535Z,8.80
2018-01-21T16:04:15.841Z,8.13
2018-01-21T16:06:44.176Z,7.60
2018-01-21T16:09:12.467Z,14.23
2018-01-21T16:11:40.792Z,8.60
2018-01-21T16:14:09.109Z,10.47
2018-01-21T16:16:37.406Z,13.00
2018-01-21T16:19:07.673Z,17.80
2018-01-21T16:21:36.005Z,13.07
2018-01-21T16:24:04.309Z,9.80
2018-01-21T16:26:48.184Z,11.03
2018-01-21T16:29:16.541Z,11.80
2018-01-21T16:31:44.892Z,12.60
2018-01-21T16:34:13.199Z,13.13
2018-01-21T16:36:41.517Z,10.63
2018-01-21T16:39:10.880Z,10.97
2018-01-21T16:41:39.179Z,14.97
2018-01-21T16:44:07.507Z,12.57
2018-01-21T16:46:35.819Z,12.50
2018-01-21T16:49:04.934Z,18.60
2018-01-21T16:51:34.113Z,15.30
2018-01-21T16:54:02.436Z,17.07
2018-01-21T16:56:30.743Z,12.70
2018-01-21T16:58:59.064Z,13.53
2018-01-21T17:01:27.367Z,11.40
2018-01-21T17:03:55.695Z,14.63
2018-01-21T17:06:24.019Z,14.27
2018-01-21T17:08:52.356Z,21.03
2018-01-21T17:11:20.822Z,17.00
2018-01-21T17:13:49.157Z,11.73
2018-01-21T17:16:17.491Z,13.70
2018-01-21T17:18:46.549Z,14.97
2018-01-21T17:21:14.951Z,11.57
2018-01-21T17:23:43.255Z,9.60
2018-01-21T17:26:11.559Z,10.23
2018-01-21T17:28:40.723Z,11.67
2018-01-21T17:31:09.021Z,11.30
2018-01-21T17:33:37.346Z,15.67
2018-01-21T17:36:05.705Z,13.73
2018-01-21T17:38:34.043Z,12.07
2018-01-21T17:41:02.349Z,15.80
2018-01-21T17:43:30.770Z,13.80
2018-01-21T17:45:59.064Z,10.77
2018-01-21T17:48:27.629Z,17.60
2018-01-21T17:50:55.919Z,9.63
2018-01-21T17:53:24.243Z,13.83
2018-01-21T17:55:52.740Z,10.90
2018-01-21T17:58:21.063Z,10.67
2018-01-21T18:00:49.530Z,15.40
2018-01-21T18:03:17.838Z,16.30
2018-01-21T18:05:46.398Z,12.27
2018-01-21T18:08:14.750Z,15.20
2018-01-21T18:10:43.063Z,10.73
2018-01-21T18:13:11.431Z,22.47
2018-01-21T18:15:39.744Z,17.50
2018-01-21T18:18:08.057Z,17.00
2018-01-21T18:20:36.575Z,15.63
2018-01-21T18:23:04.864Z,14.63
2018-01-21T18:25:33.202Z,19.77
2018-01-21T18:28:01.528Z,20.23
2018-01-21T18:30:29.828Z,14.73
2018-01-21T18:35:32.624Z,18.23
2018-01-21T18:38:00.930Z,16.03
2018-01-21T18:40:29.299Z,14.83
2018-01-21T18:42:57.668Z,14.53
2018-01-21T18:45:25.929Z,20.17
2018-01-21T18:47:54.246Z,12.93
2018-01-21T18:50:22.565Z,13.83
2018-01-21T18:52:51.192Z,9.97
2018-01-21T18:55:19.516Z,16.70
2018-01-21T18:57:47.891Z,16.37
2018-01-21T19:00:16.255Z,21.77
2018-01-21T19:02:44.639Z,17.40
2018-01-21T19:07:45.460Z,16.63
2018-01-21T19:10:13.826Z,14.57
2018-01-21T19:12:42.171Z,14.87
2018-01-21T19:15:10.487Z,12.40
2018-01-21T19:17:39.072Z,15.80
2018-01-21T19:20:07.379Z,12.53
2018-01-21T19:22:35.700Z,13.83
2018-01-21T19:25:04.013Z,13.60
2018-01-21T19:27:32.512Z,13.00
2018-01-21T19:30:00.863Z,18.33
2018-01-21T19:32:29.179Z,13.13
2018-01-21T19:34:57.513Z,14.43
2018-01-21T19:37:25.872Z,10.40
2018-01-21T19:39:59.784Z,15.83
2018-01-21T19:42:29.502Z,11.20
2018-01-21T19:44:57.837Z,17.10
2018-01-21T19:47:26.156Z,19.40
2018-01-21T19:49:55.322Z,18.47
2018-01-21T19:52:23.761Z,20.33
2018-01-21T19:54:52.182Z,13.90
2018-01-21T19:57:20.548Z,19.40
2018-01-21T19:59:48.911Z,22.03
2018-01-21T20:02:17.225Z,16.87
2018-01-21T20:04:45.604Z,14.90
2018-01-21T20:07:13.880Z,16.80
2018-01-21T20:09:42.284Z,12.47
2018-01-21T20:12:10.619Z,19.00
2018-01-21T20:14:38.969Z,14.27
2018-01-21T20:17:07.535Z,18.00
2018-01-21T20:19:35.884Z,17.73
2018-01-21T20:22:04.204Z,14.80
2018-01-21T20:24:32.579Z,27.57
2018-01-21T20:27:00.889Z,14.10
2018-01-21T20:29:29.218Z,22.63
2018-01-21T20:31:57.560Z,19.70
2018-01-21T20:34:25.875Z,18.30
2018-01-21T20:36:54.192Z,20.70
2018-01-21T20:39:23.438Z,24.40
2018-01-21T20:41:51.760Z,23.27
2018-01-21T20:44:20.171Z,24.17
2018-01-21T20:46:48.538Z,20.47
2018-01-21T20:49:16.868Z,21.40
2018-01-21T20:51:50.795Z,20.60
2018-01-21T20:54:24.735Z,22.97
2018-01-21T20:56:53.090Z,15.63
2018-01-21T20:59:21.529Z,29.20
2018-01-21T21:01:49.876Z,17.60
2018-01-21T21:04:18.214Z,25.67
2018-01-21T21:06:46.559Z,18.83
2018-01-21T21:09:14.890Z,26.00
2018-01-21T21:11:43.442Z,17.70
2018-01-21T21:14:11.841Z,19.33
2018-01-21T21:16:40.196Z,30.33
2018-01-21T21:19:08.522Z,21.77
2018-01-21T21:21:36.875Z,23.63
2018-01-21T21:24:05.208Z,29.17
2018-01-21T21:26:33.619Z,22.47
2018-01-21T21:29:02.026Z,19.43
2018-01-21T21:31:31.014Z,23.80
2018-01-21T21:33:59.393Z,19.23
2018-01-21T21:36:27.884Z,21.00
2018-01-21T21:38:56.214Z,17.17
2018-01-21T21:41:24.755Z,15.93
2018-01-21T21:43:53.178Z,25.57
2018-01-21T21:46:21.527Z,15.07
2018-01-21T21:48:49.862Z,16.43
2018-01-21T21:51:18.209Z,21.63
2018-01-21T21:53:46.567Z,21.17
2018-01-21T21:56:15.067Z,16.30
2018-01-21T21:58:43.536Z,16.63
2018-01-21T22:01:11.839Z,22.00
2018-01-21T22:03:40.183Z,21.40
2018-01-21T22:06:09.956Z,21.47
2018-01-21T22:08:38.422Z,17.70
2018-01-21T22:11:06.774Z,21.57
2018-01-21T22:13:35.123Z,18.70
2018-01-21T22:16:03.457Z,18.87
2018-01-21T22:18:31.764Z,21.67
2018-01-21T22:21:00.116Z,22.00
2018-01-21T22:23:28.441Z,15.40
2018-01-21T22:25:56.763Z,18.83
2018-01-21T22:28:25.086Z,18.73
2018-01-21T22:30:53.420Z,17.37
2018-01-21T22:33:21.747Z,18.47
2018-01-21T22:35:50.919Z,22.17
2018-01-21T22:38:20.697Z,19.07
2018-01-21T22:40:49.053Z,23.50
2018-01-21T22:43:17.430Z,26.90
2018-01-21T22:45:45.810Z,21.70
2018-01-21T22:48:14.831Z,18.90
2018-01-21T22:50:43.160Z,25.37
2018-01-21T22:53:11.487Z,20.33
2018-01-21T22:55:39.850Z,15.60
2018-01-21T22:58:08.929Z,25.43
2018-01-21T23:00:37.319Z,24.93
2018-01-21T23:03:05.698Z,15.47
2018-01-21T23:05:34.075Z,15.00
2018-01-21T23:08:02.387Z,18.00
2018-01-21T23:10:30.719Z,13.53
2018-01-21T23:12:59.251Z,13.70
2018-01-21T23:15:27.598Z,11.90
2018-01-21T23:17:56.883Z,11.57
2018-01-21T23:20:37.375Z,14.20
2018-01-21T23:23:05.719Z,12.07
2018-01-21T23:25:34.208Z,20.93
2018-01-21T23:28:02.505Z,12.83
2018-01-21T23:30:31.803Z,13.43
2018-01-21T23:33:00.145Z,10.47
2018-01-21T23:35:28.463Z,13.00
2018-01-21T23:37:56.916Z,19.53
2018-01-21T23:40:25.354Z,13.43
2018-01-21T23:42:53.697Z,13.43
2018-01-21T23:45:22.016Z,11.40
2018-01-21T23:47:50.347Z,13.53
2018-01-21T23:50:18.667Z,9.33
2018-01-21T23:52:47.000Z,7.60
2018-01-21T23:55:15.325Z,10.93
2018-01-21T23:57:43.635Z,10.07
